sensor_id;sensor_type;location;lat;lon;timestamp;temperature;humidity
24250;DHT22;12379;49.820;8.648;2023-07-28T00:01:57;18.00;99.90
24250;DHT22;12379;49.820;8.648;2023-07-28T00:04:23;18.00;99.90
24250;DHT22;12379;49.820;8.648;2023-07-28T00:06:48;18.00;99.90
24250;DHT22;12379;49.820;8.648;2023-07-28T00:09:14;18.00;99.90
24250;DHT22;12379;49.820;8.648;2023-07-28T00:11:39;17.90;99.90
24250;DHT22;12379;49.820;8.648;2023-07-28T00:14:05;18.00;99.90
24250;DHT22;12379;49.820;8.648;2023-07-28T00:16:30;18.10;99.90
24250;DHT22;12379;49.820;8.648;2023-07-28T00:18:56;18.00;99.90
24250;DHT22;12379;49.820;8.648;2023-07-28T00:21:22;18.00;99.90
24250;DHT22;12379;49.820;8.648;2023-07-28T00:23:47;18.10;99.90
24250;DHT22;12379;49.820;8.648;2023-07-28T00:26:13;18.10;99.90
24250;DHT22;12379;49.820;8.648;2023-07-28T00:28:38;18.00;99.90
24250;DHT22;12379;49.820;8.648;2023-07-28T00:31:04;18.00;99.90
24250;DHT22;12379;49.820;8.648;2023-07-28T00:33:29;18.00;99.90
24250;DHT22;12379;49.820;8.648;2023-07-28T00:35:55;18.00;99.90
24250;DHT22;12379;49.820;8.648;2023-07-28T00:38:20;18.00;99.90
24250;DHT22;12379;49.820;8.648;2023-07-28T00:40:46;18.00;99.90
24250;DHT22;12379;49.820;8.648;2023-07-28T00:43:12;18.00;99.90
24250;DHT22;12379;49.820;8.648;2023-07-28T00:45:37;18.00;99.90
24250;DHT22;12379;49.820;8.648;2023-07-28T00:48:11;17.90;99.90
24250;DHT22;12379;49.820;8.648;2023-07-28T00:50:38;17.90;99.90
24250;DHT22;12379;49.820;8.648;2023-07-28T00:53:04;17.90;99.90
24250;DHT22;12379;49.820;8.648;2023-07-28T00:55:29;17.90;99.90
24250;DHT22;12379;49.820;8.648;2023-07-28T00:57:56;17.90;99.90
24250;DHT22;12379;49.820;8.648;2023-07-28T01:00:22;17.90;99.90
24250;DHT22;12379;49.820;8.648;2023-07-28T01:02:47;17.90;99.90
24250;DHT22;12379;49.820;8.648;2023-07-28T01:05:13;17.80;99.90
24250;DHT22;12379;49.820;8.648;2023-07-28T01:07:55;17.90;99.90
24250;DHT22;12379;49.820;8.648;2023-07-28T01:10:30;17.90;99.90
24250;DHT22;12379;49.820;8.648;2023-07-28T01:12:57;17.90;99.90
24250;DHT22;12379;49.820;8.648;2023-07-28T01:15:23;18.00;99.90
24250;DHT22;12379;49.820;8.648;2023-07-28T01:17:49;17.90;99.90
24250;DHT22;12379;49.820;8.648;2023-07-28T01:20:15;18.00;99.90
24250;DHT22;12379;49.820;8.648;2023-07-28T01:22:48;17.90;99.90
24250;DHT22;12379;49.820;8.648;2023-07-28T01:25:32;17.90;99.90
24250;DHT22;12379;49.820;8.648;2023-07-28T01:27:59;17.90;99.90
24250;DHT22;12379;49.820;8.648;2023-07-28T01:30:26;17.90;99.90
24250;DHT22;12379;49.820;8.648;2023-07-28T01:32:56;17.90;99.90
24250;DHT22;12379;49.820;8.648;2023-07-28T01:35:23;17.90;99.90
24250;DHT22;12379;49.820;8.648;2023-07-28T01:37:49;17.90;99.90
24250;DHT22;12379;49.820;8.648;2023-07-28T01:40:19;18.00;99.90
24250;DHT22;12379;49.820;8.648;2023-07-28T01:42:45;18.10;99.90
24250;DHT22;12379;49.820;8.648;2023-07-28T01:45:11;18.10;99.90
24250;DHT22;12379;49.820;8.648;2023-07-28T01:47:37;18.10;99.90
24250;DHT22;12379;49.820;8.648;2023-07-28T01:50:02;18.00;99.90
24250;DHT22;12379;49.820;8.648;2023-07-28T01:52:28;18.00;99.90
24250;DHT22;12379;49.820;8.648;2023-07-28T01:54:53;18.00;99.90
24250;DHT22;12379;49.820;8.648;2023-07-28T01:57:19;18.20;99.90
24250;DHT22;12379;49.820;8.648;2023-07-28T01:59:44;18.10;99.90
24250;DHT22;12379;49.820;8.648;2023-07-28T02:02:10;18.20;99.90
24250;DHT22;12379;49.820;8.648;2023-07-28T02:04:35;18.10;99.90
24250;DHT22;12379;49.820;8.648;2023-07-28T02:07:01;18.10;99.90
24250;DHT22;12379;49.820;8.648;2023-07-28T02:09:27;18.10;99.90
24250;DHT22;12379;49.820;8.648;2023-07-28T02:11:52;18.10;99.90
24250;DHT22;12379;49.820;8.648;2023-07-28T02:14:18;18.10;99.90
24250;DHT22;12379;49.820;8.648;2023-07-28T02:16:44;18.00;99.90
24250;DHT22;12379;49.820;8.648;2023-07-28T02:19:09;18.10;99.90
24250;DHT22;12379;49.820;8.648;2023-07-28T02:21:35;18.00;99.90
24250;DHT22;12379;49.820;8.648;2023-07-28T02:24:01;18.00;99.90
24250;DHT22;12379;49.820;8.648;2023-07-28T02:26:26;18.00;99.90
24250;DHT22;12379;49.820;8.648;2023-07-28T02:28:52;18.00;99.90
24250;DHT22;12379;49.820;8.648;2023-07-28T02:31:17;18.10;99.90
24250;DHT22;12379;49.820;8.648;2023-07-28T02:33:43;18.00;99.90
24250;DHT22;12379;49.820;8.648;2023-07-28T02:36:08;17.90;99.90
24250;DHT22;12379;49.820;8.648;2023-07-28T02:38:34;18.00;99.90
24250;DHT22;12379;49.820;8.648;2023-07-28T02:40:59;18.00;99.90
24250;DHT22;12379;49.820;8.648;2023-07-28T02:43:25;17.90;99.90
24250;DHT22;12379;49.820;8.648;2023-07-28T02:45:54;18.00;99.90
24250;DHT22;12379;49.820;8.648;2023-07-28T02:48:20;18.00;99.90
24250;DHT22;12379;49.820;8.648;2023-07-28T02:50:47;17.90;99.90
24250;DHT22;12379;49.820;8.648;2023-07-28T02:53:13;17.90;99.90
24250;DHT22;12379;49.820;8.648;2023-07-28T02:55:43;18.00;99.90
24250;DHT22;12379;49.820;8.648;2023-07-28T02:58:09;18.00;99.90
24250;DHT22;12379;49.820;8.648;2023-07-28T03:00:37;18.00;99.90
24250;DHT22;12379;49.820;8.648;2023-07-28T03:03:04;18.00;99.90
24250;DHT22;12379;49.820;8.648;2023-07-28T03:05:31;18.00;99.90
24250;DHT22;12379;49.820;8.648;2023-07-28T03:07:56;18.00;99.90
24250;DHT22;12379;49.820;8.648;2023-07-28T03:10:22;17.90;99.90
24250;DHT22;12379;49.820;8.648;2023-07-28T03:12:47;17.90;99.90
24250;DHT22;12379;49.820;8.648;2023-07-28T03:15:13;18.00;99.90
24250;DHT22;12379;49.820;8.648;2023-07-28T03:17:39;17.90;99.90
24250;DHT22;12379;49.820;8.648;2023-07-28T03:20:05;17.90;99.90
24250;DHT22;12379;49.820;8.648;2023-07-28T03:22:30;18.00;99.90
24250;DHT22;12379;49.820;8.648;2023-07-28T03:24:56;17.90;99.90
24250;DHT22;12379;49.820;8.648;2023-07-28T03:27:22;17.90;99.90
24250;DHT22;12379;49.820;8.648;2023-07-28T03:29:47;17.80;99.90
24250;DHT22;12379;49.820;8.648;2023-07-28T03:32:13;17.90;99.90
24250;DHT22;12379;49.820;8.648;2023-07-28T03:34:38;17.90;99.90
24250;DHT22;12379;49.820;8.648;2023-07-28T03:37:04;18.00;99.90
24250;DHT22;12379;49.820;8.648;2023-07-28T03:39:30;18.10;99.90
24250;DHT22;12379;49.820;8.648;2023-07-28T03:41:56;18.00;99.90
24250;DHT22;12379;49.820;8.648;2023-07-28T03:44:22;18.10;99.90
24250;DHT22;12379;49.820;8.648;2023-07-28T03:46:48;18.00;99.90
24250;DHT22;12379;49.820;8.648;2023-07-28T03:49:14;18.00;99.90
24250;DHT22;12379;49.820;8.648;2023-07-28T03:51:39;18.00;99.90
24250;DHT22;12379;49.820;8.648;2023-07-28T03:54:05;18.00;99.90
24250;DHT22;12379;49.820;8.648;2023-07-28T03:56:30;18.00;99.90
24250;DHT22;12379;49.820;8.648;2023-07-28T03:58:56;18.00;99.90
24250;DHT22;12379;49.820;8.648;2023-07-28T04:01:21;17.90;99.90
24250;DHT22;12379;49.820;8.648;2023-07-28T04:03:48;17.90;99.90
24250;DHT22;12379;49.820;8.648;2023-07-28T04:06:13;17.90;99.90
24250;DHT22;12379;49.820;8.648;2023-07-28T04:08:39;17.90;99.90
24250;DHT22;12379;49.820;8.648;2023-07-28T04:11:05;17.90;99.90
24250;DHT22;12379;49.820;8.648;2023-07-28T04:13:31;17.90;99.90
24250;DHT22;12379;49.820;8.648;2023-07-28T04:15:57;17.90;99.90
24250;DHT22;12379;49.820;8.648;2023-07-28T04:18:22;17.90;99.90
24250;DHT22;12379;49.820;8.648;2023-07-28T04:20:48;17.90;99.90
24250;DHT22;12379;49.820;8.648;2023-07-28T04:23:14;17.90;99.90
24250;DHT22;12379;49.820;8.648;2023-07-28T04:25:39;17.90;99.90
24250;DHT22;12379;49.820;8.648;2023-07-28T04:28:05;17.90;99.90
24250;DHT22;12379;49.820;8.648;2023-07-28T04:30:30;17.90;99.90
24250;DHT22;12379;49.820;8.648;2023-07-28T04:32:56;17.90;99.90
24250;DHT22;12379;49.820;8.648;2023-07-28T04:35:21;18.00;99.90
24250;DHT22;12379;49.820;8.648;2023-07-28T04:37:47;18.00;99.90
24250;DHT22;12379;49.820;8.648;2023-07-28T04:40:13;18.00;99.90
24250;DHT22;12379;49.820;8.648;2023-07-28T04:42:39;18.00;99.90
24250;DHT22;12379;49.820;8.648;2023-07-28T04:45:05;18.00;99.90
24250;DHT22;12379;49.820;8.648;2023-07-28T04:47:30;18.00;99.90
24250;DHT22;12379;49.820;8.648;2023-07-28T04:49:56;18.10;99.90
24250;DHT22;12379;49.820;8.648;2023-07-28T04:52:21;18.00;99.90
24250;DHT22;12379;49.820;8.648;2023-07-28T04:54:47;18.10;99.90
24250;DHT22;12379;49.820;8.648;2023-07-28T04:57:12;18.10;99.90
24250;DHT22;12379;49.820;8.648;2023-07-28T04:59:38;18.10;99.90
24250;DHT22;12379;49.820;8.648;2023-07-28T05:02:04;18.20;99.90
24250;DHT22;12379;49.820;8.648;2023-07-28T05:04:29;18.20;99.90
24250;DHT22;12379;49.820;8.648;2023-07-28T05:06:55;18.20;99.90
24250;DHT22;12379;49.820;8.648;2023-07-28T05:09:20;18.20;99.90
24250;DHT22;12379;49.820;8.648;2023-07-28T05:11:46;18.20;99.90
24250;DHT22;12379;49.820;8.648;2023-07-28T05:14:12;18.30;99.90
24250;DHT22;12379;49.820;8.648;2023-07-28T05:16:37;18.30;99.90
24250;DHT22;12379;49.820;8.648;2023-07-28T05:19:05;18.40;99.90
24250;DHT22;12379;49.820;8.648;2023-07-28T05:21:31;18.40;99.90
24250;DHT22;12379;49.820;8.648;2023-07-28T05:23:57;18.50;99.90
24250;DHT22;12379;49.820;8.648;2023-07-28T05:26:22;18.50;99.90
24250;DHT22;12379;49.820;8.648;2023-07-28T05:28:48;18.60;99.90
24250;DHT22;12379;49.820;8.648;2023-07-28T05:31:13;18.50;99.90
24250;DHT22;12379;49.820;8.648;2023-07-28T05:33:40;18.50;99.90
24250;DHT22;12379;49.820;8.648;2023-07-28T05:36:06;18.40;99.90
24250;DHT22;12379;49.820;8.648;2023-07-28T05:38:32;18.50;99.90
24250;DHT22;12379;49.820;8.648;2023-07-28T05:41:02;18.40;99.90
24250;DHT22;12379;49.820;8.648;2023-07-28T05:43:31;18.40;99.90
24250;DHT22;12379;49.820;8.648;2023-07-28T05:45:58;18.40;99.90
24250;DHT22;12379;49.820;8.648;2023-07-28T05:48:23;18.40;99.90
24250;DHT22;12379;49.820;8.648;2023-07-28T05:50:49;18.50;99.90
24250;DHT22;12379;49.820;8.648;2023-07-28T05:53:16;18.40;99.90
24250;DHT22;12379;49.820;8.648;2023-07-28T05:55:42;18.50;99.90
24250;DHT22;12379;49.820;8.648;2023-07-28T05:58:07;18.60;99.90
24250;DHT22;12379;49.820;8.648;2023-07-28T06:00:33;18.50;99.90
24250;DHT22;12379;49.820;8.648;2023-07-28T06:02:58;18.70;99.90
24250;DHT22;12379;49.820;8.648;2023-07-28T06:05:24;18.70;99.90
24250;DHT22;12379;49.820;8.648;2023-07-28T06:07:50;18.70;99.90
24250;DHT22;12379;49.820;8.648;2023-07-28T06:10:15;18.80;99.90
24250;DHT22;12379;49.820;8.648;2023-07-28T06:12:41;18.90;99.90
24250;DHT22;12379;49.820;8.648;2023-07-28T06:15:07;18.80;99.90
24250;DHT22;12379;49.820;8.648;2023-07-28T06:17:32;18.90;99.90
24250;DHT22;12379;49.820;8.648;2023-07-28T06:19:58;18.90;99.90
24250;DHT22;12379;49.820;8.648;2023-07-28T06:22:24;18.90;99.90
24250;DHT22;12379;49.820;8.648;2023-07-28T06:24:50;19.00;99.90
24250;DHT22;12379;49.820;8.648;2023-07-28T06:27:15;19.00;99.90
24250;DHT22;12379;49.820;8.648;2023-07-28T06:29:41;19.10;99.90
24250;DHT22;12379;49.820;8.648;2023-07-28T06:32:07;19.30;99.90
24250;DHT22;12379;49.820;8.648;2023-07-28T06:34:32;19.30;99.90
24250;DHT22;12379;49.820;8.648;2023-07-28T06:36:58;19.30;99.90
24250;DHT22;12379;49.820;8.648;2023-07-28T06:39:24;19.40;99.90
24250;DHT22;12379;49.820;8.648;2023-07-28T06:41:50;19.30;99.90
24250;DHT22;12379;49.820;8.648;2023-07-28T06:44:16;19.20;99.90
24250;DHT22;12379;49.820;8.648;2023-07-28T06:46:41;19.30;99.90
24250;DHT22;12379;49.820;8.648;2023-07-28T06:49:07;19.20;99.90
24250;DHT22;12379;49.820;8.648;2023-07-28T06:51:32;19.20;99.90
24250;DHT22;12379;49.820;8.648;2023-07-28T06:53:59;19.40;99.90
24250;DHT22;12379;49.820;8.648;2023-07-28T06:56:24;19.40;99.90
24250;DHT22;12379;49.820;8.648;2023-07-28T06:58:50;19.40;99.90
24250;DHT22;12379;49.820;8.648;2023-07-28T07:01:15;19.40;99.90
24250;DHT22;12379;49.820;8.648;2023-07-28T07:03:42;19.60;99.90
24250;DHT22;12379;49.820;8.648;2023-07-28T07:06:07;19.80;99.90
24250;DHT22;12379;49.820;8.648;2023-07-28T07:08:33;20.20;99.90
24250;DHT22;12379;49.820;8.648;2023-07-28T07:10:58;20.30;99.90
24250;DHT22;12379;49.820;8.648;2023-07-28T07:13:24;20.60;99.90
24250;DHT22;12379;49.820;8.648;2023-07-28T07:15:49;21.20;99.90
24250;DHT22;12379;49.820;8.648;2023-07-28T07:18:15;21.40;99.90
24250;DHT22;12379;49.820;8.648;2023-07-28T07:20:40;21.60;99.90
24250;DHT22;12379;49.820;8.648;2023-07-28T07:23:06;21.50;99.90
24250;DHT22;12379;49.820;8.648;2023-07-28T07:25:31;21.60;99.90
24250;DHT22;12379;49.820;8.648;2023-07-28T07:27:57;21.50;99.90
24250;DHT22;12379;49.820;8.648;2023-07-28T07:30:23;21.00;99.90
24250;DHT22;12379;49.820;8.648;2023-07-28T07:32:48;20.70;99.90
24250;DHT22;12379;49.820;8.648;2023-07-28T07:35:14;20.80;99.90
24250;DHT22;12379;49.820;8.648;2023-07-28T07:37:39;20.90;99.90
24250;DHT22;12379;49.820;8.648;2023-07-28T07:40:06;21.10;99.90
24250;DHT22;12379;49.820;8.648;2023-07-28T07:42:48;21.20;99.90
24250;DHT22;12379;49.820;8.648;2023-07-28T07:45:14;21.00;99.90
24250;DHT22;12379;49.820;8.648;2023-07-28T07:47:41;21.20;99.90
24250;DHT22;12379;49.820;8.648;2023-07-28T07:50:07;21.40;99.90
24250;DHT22;12379;49.820;8.648;2023-07-28T07:52:36;21.60;99.90
24250;DHT22;12379;49.820;8.648;2023-07-28T07:55:05;21.70;99.90
24250;DHT22;12379;49.820;8.648;2023-07-28T07:57:31;22.00;99.90
24250;DHT22;12379;49.820;8.648;2023-07-28T07:59:58;22.60;99.90
24250;DHT22;12379;49.820;8.648;2023-07-28T08:02:24;23.10;99.90
24250;DHT22;12379;49.820;8.648;2023-07-28T08:04:51;23.30;99.90
24250;DHT22;12379;49.820;8.648;2023-07-28T08:07:16;23.00;99.90
24250;DHT22;12379;49.820;8.648;2023-07-28T08:09:42;22.90;99.90
24250;DHT22;12379;49.820;8.648;2023-07-28T08:12:08;23.30;99.90
24250;DHT22;12379;49.820;8.648;2023-07-28T08:14:35;23.30;99.90
24250;DHT22;12379;49.820;8.648;2023-07-28T08:17:00;23.10;99.90
24250;DHT22;12379;49.820;8.648;2023-07-28T08:19:26;22.80;99.90
24250;DHT22;12379;49.820;8.648;2023-07-28T08:21:51;22.70;99.90
24250;DHT22;12379;49.820;8.648;2023-07-28T08:24:17;22.70;99.90
24250;DHT22;12379;49.820;8.648;2023-07-28T08:26:42;22.50;99.90
24250;DHT22;12379;49.820;8.648;2023-07-28T08:29:08;22.50;99.90
24250;DHT22;12379;49.820;8.648;2023-07-28T08:31:33;22.20;99.90
24250;DHT22;12379;49.820;8.648;2023-07-28T08:33:59;22.10;99.90
24250;DHT22;12379;49.820;8.648;2023-07-28T08:36:24;22.00;99.90
24250;DHT22;12379;49.820;8.648;2023-07-28T08:38:50;22.30;99.90
24250;DHT22;12379;49.820;8.648;2023-07-28T08:41:15;22.20;99.90
24250;DHT22;12379;49.820;8.648;2023-07-28T08:43:42;22.40;99.90
24250;DHT22;12379;49.820;8.648;2023-07-28T08:46:08;22.10;99.90
24250;DHT22;12379;49.820;8.648;2023-07-28T08:48:33;22.20;99.90
24250;DHT22;12379;49.820;8.648;2023-07-28T08:50:59;22.20;99.90
24250;DHT22;12379;49.820;8.648;2023-07-28T08:53:24;22.10;99.90
24250;DHT22;12379;49.820;8.648;2023-07-28T08:55:51;22.10;99.90
24250;DHT22;12379;49.820;8.648;2023-07-28T08:58:23;22.00;99.90
24250;DHT22;12379;49.820;8.648;2023-07-28T09:00:52;21.90;99.90
24250;DHT22;12379;49.820;8.648;2023-07-28T09:03:18;22.10;99.90
24250;DHT22;12379;49.820;8.648;2023-07-28T09:05:44;22.00;99.90
24250;DHT22;12379;49.820;8.648;2023-07-28T09:08:12;22.10;99.90
24250;DHT22;12379;49.820;8.648;2023-07-28T09:10:43;22.20;99.90
24250;DHT22;12379;49.820;8.648;2023-07-28T09:13:12;22.50;99.90
24250;DHT22;12379;49.820;8.648;2023-07-28T09:15:39;22.50;99.90
24250;DHT22;12379;49.820;8.648;2023-07-28T09:18:08;22.40;99.90
24250;DHT22;12379;49.820;8.648;2023-07-28T09:20:37;22.20;99.90
24250;DHT22;12379;49.820;8.648;2023-07-28T09:23:03;22.10;99.90
24250;DHT22;12379;49.820;8.648;2023-07-28T09:25:29;22.10;99.90
24250;DHT22;12379;49.820;8.648;2023-07-28T09:27:58;21.90;99.90
24250;DHT22;12379;49.820;8.648;2023-07-28T09:30:25;22.10;99.90
24250;DHT22;12379;49.820;8.648;2023-07-28T09:32:53;22.40;99.90
24250;DHT22;12379;49.820;8.648;2023-07-28T09:35:19;22.70;99.90
24250;DHT22;12379;49.820;8.648;2023-07-28T09:37:47;22.80;99.90
24250;DHT22;12379;49.820;8.648;2023-07-28T09:40:17;23.20;99.90
24250;DHT22;12379;49.820;8.648;2023-07-28T09:42:45;23.20;99.90
24250;DHT22;12379;49.820;8.648;2023-07-28T09:45:18;23.10;99.90
24250;DHT22;12379;49.820;8.648;2023-07-28T09:47:48;23.00;99.90
24250;DHT22;12379;49.820;8.648;2023-07-28T09:50:15;22.80;99.90
24250;DHT22;12379;49.820;8.648;2023-07-28T09:52:43;22.60;99.90
24250;DHT22;12379;49.820;8.648;2023-07-28T09:55:11;22.50;99.90
24250;DHT22;12379;49.820;8.648;2023-07-28T09:57:50;22.70;99.90
24250;DHT22;12379;49.820;8.648;2023-07-28T10:00:17;22.90;99.90
24250;DHT22;12379;49.820;8.648;2023-07-28T10:02:45;22.90;99.90
24250;DHT22;12379;49.820;8.648;2023-07-28T10:05:10;22.70;99.90
24250;DHT22;12379;49.820;8.648;2023-07-28T10:07:39;22.50;99.90
24250;DHT22;12379;49.820;8.648;2023-07-28T10:10:06;22.10;99.90
24250;DHT22;12379;49.820;8.648;2023-07-28T10:12:51;22.10;99.90
24250;DHT22;12379;49.820;8.648;2023-07-28T10:15:18;22.00;99.90
24250;DHT22;12379;49.820;8.648;2023-07-28T10:17:51;22.10;99.90
24250;DHT22;12379;49.820;8.648;2023-07-28T10:20:31;22.00;99.90
24250;DHT22;12379;49.820;8.648;2023-07-28T10:23:06;22.00;99.90
24250;DHT22;12379;49.820;8.648;2023-07-28T10:25:36;21.90;99.90
24250;DHT22;12379;49.820;8.648;2023-07-28T10:28:03;22.00;99.90
24250;DHT22;12379;49.820;8.648;2023-07-28T10:30:35;22.20;99.90
24250;DHT22;12379;49.820;8.648;2023-07-28T10:33:01;22.20;99.90
24250;DHT22;12379;49.820;8.648;2023-07-28T10:35:28;22.20;99.90
24250;DHT22;12379;49.820;8.648;2023-07-28T10:37:56;22.20;99.90
24250;DHT22;12379;49.820;8.648;2023-07-28T10:42:54;21.90;99.90
24250;DHT22;12379;49.820;8.648;2023-07-28T10:45:22;21.90;99.90
24250;DHT22;12379;49.820;8.648;2023-07-28T10:47:49;21.90;99.90
24250;DHT22;12379;49.820;8.648;2023-07-28T10:50:16;22.00;99.90
24250;DHT22;12379;49.820;8.648;2023-07-28T10:52:43;22.00;99.90
24250;DHT22;12379;49.820;8.648;2023-07-28T10:55:14;22.00;99.90
24250;DHT22;12379;49.820;8.648;2023-07-28T10:57:44;22.20;99.90
24250;DHT22;12379;49.820;8.648;2023-07-28T11:00:12;22.30;99.90
24250;DHT22;12379;49.820;8.648;2023-07-28T11:02:51;22.50;99.90
24250;DHT22;12379;49.820;8.648;2023-07-28T11:05:26;22.40;99.90
24250;DHT22;12379;49.820;8.648;2023-07-28T11:07:54;22.40;99.90
24250;DHT22;12379;49.820;8.648;2023-07-28T11:10:21;22.30;99.90
24250;DHT22;12379;49.820;8.648;2023-07-28T11:12:51;22.40;99.90
24250;DHT22;12379;49.820;8.648;2023-07-28T11:15:17;22.50;99.90
24250;DHT22;12379;49.820;8.648;2023-07-28T11:17:47;22.40;99.90
24250;DHT22;12379;49.820;8.648;2023-07-28T11:22:42;22.20;99.90
24250;DHT22;12379;49.820;8.648;2023-07-28T11:25:08;22.10;99.90
24250;DHT22;12379;49.820;8.648;2023-07-28T11:27:36;21.90;99.90
24250;DHT22;12379;49.820;8.648;2023-07-28T11:30:01;21.80;99.90
24250;DHT22;12379;49.820;8.648;2023-07-28T11:32:30;21.80;99.90
24250;DHT22;12379;49.820;8.648;2023-07-28T11:35:02;21.80;99.90
24250;DHT22;12379;49.820;8.648;2023-07-28T11:37:29;21.80;99.90
24250;DHT22;12379;49.820;8.648;2023-07-28T11:39:55;21.90;99.90
24250;DHT22;12379;49.820;8.648;2023-07-28T11:42:22;21.90;99.90
24250;DHT22;12379;49.820;8.648;2023-07-28T11:44:48;21.90;99.90
24250;DHT22;12379;49.820;8.648;2023-07-28T11:47:19;21.90;99.90
24250;DHT22;12379;49.820;8.648;2023-07-28T11:49:47;21.80;99.90
24250;DHT22;12379;49.820;8.648;2023-07-28T11:52:13;21.80;99.90
24250;DHT22;12379;49.820;8.648;2023-07-28T11:54:38;21.80;99.90
24250;DHT22;12379;49.820;8.648;2023-07-28T11:57:07;21.80;99.90
24250;DHT22;12379;49.820;8.648;2023-07-28T11:59:34;21.80;99.90
24250;DHT22;12379;49.820;8.648;2023-07-28T12:02:01;21.90;99.90
24250;DHT22;12379;49.820;8.648;2023-07-28T12:04:36;21.90;99.90
24250;DHT22;12379;49.820;8.648;2023-07-28T12:07:08;21.80;99.90
24250;DHT22;12379;49.820;8.648;2023-07-28T12:12:21;21.90;99.90
24250;DHT22;12379;49.820;8.648;2023-07-28T12:14:48;21.90;99.90
24250;DHT22;12379;49.820;8.648;2023-07-28T12:17:18;21.80;99.90
24250;DHT22;12379;49.820;8.648;2023-07-28T12:20:06;21.80;99.90
24250;DHT22;12379;49.820;8.648;2023-07-28T12:22:37;21.80;99.90
24250;DHT22;12379;49.820;8.648;2023-07-28T12:25:04;21.80;99.90
24250;DHT22;12379;49.820;8.648;2023-07-28T12:27:30;21.90;99.90
24250;DHT22;12379;49.820;8.648;2023-07-28T12:29:56;21.90;99.90
24250;DHT22;12379;49.820;8.648;2023-07-28T12:32:21;21.80;99.90
24250;DHT22;12379;49.820;8.648;2023-07-28T12:34:49;21.90;99.90
24250;DHT22;12379;49.820;8.648;2023-07-28T12:37:15;21.90;99.90
24250;DHT22;12379;49.820;8.648;2023-07-28T12:39:40;22.00;99.90
24250;DHT22;12379;49.820;8.648;2023-07-28T12:42:10;22.00;99.90
24250;DHT22;12379;49.820;8.648;2023-07-28T12:44:36;22.10;99.90
24250;DHT22;12379;49.820;8.648;2023-07-28T12:47:02;22.30;99.90
24250;DHT22;12379;49.820;8.648;2023-07-28T12:49:28;22.50;99.90
24250;DHT22;12379;49.820;8.648;2023-07-28T12:51:58;22.50;99.90
24250;DHT22;12379;49.820;8.648;2023-07-28T12:54:24;22.40;99.90
24250;DHT22;12379;49.820;8.648;2023-07-28T12:56:50;22.50;99.90
24250;DHT22;12379;49.820;8.648;2023-07-28T12:59:16;22.50;99.90
24250;DHT22;12379;49.820;8.648;2023-07-28T13:01:42;22.50;99.90
24250;DHT22;12379;49.820;8.648;2023-07-28T13:04:07;22.50;99.90
24250;DHT22;12379;49.820;8.648;2023-07-28T13:06:33;22.50;99.90
24250;DHT22;12379;49.820;8.648;2023-07-28T13:08:58;22.30;99.90
24250;DHT22;12379;49.820;8.648;2023-07-28T13:11:24;22.10;99.90
24250;DHT22;12379;49.820;8.648;2023-07-28T13:13:50;22.10;99.90
24250;DHT22;12379;49.820;8.648;2023-07-28T13:16:15;22.00;99.90
24250;DHT22;12379;49.820;8.648;2023-07-28T13:18:42;22.00;99.90
24250;DHT22;12379;49.820;8.648;2023-07-28T13:21:08;22.00;99.90
24250;DHT22;12379;49.820;8.648;2023-07-28T13:23:35;22.00;99.90
24250;DHT22;12379;49.820;8.648;2023-07-28T13:26:01;22.00;99.90
24250;DHT22;12379;49.820;8.648;2023-07-28T13:28:29;22.10;99.90
24250;DHT22;12379;49.820;8.648;2023-07-28T13:30:55;22.10;99.90
24250;DHT22;12379;49.820;8.648;2023-07-28T13:33:20;22.30;99.90
24250;DHT22;12379;49.820;8.648;2023-07-28T13:35:46;22.30;99.90
24250;DHT22;12379;49.820;8.648;2023-07-28T13:38:11;22.30;99.90
24250;DHT22;12379;49.820;8.648;2023-07-28T13:40:37;22.40;99.90
24250;DHT22;12379;49.820;8.648;2023-07-28T13:43:03;22.40;99.90
24250;DHT22;12379;49.820;8.648;2023-07-28T13:45:29;22.30;99.90
24250;DHT22;12379;49.820;8.648;2023-07-28T13:47:54;22.30;99.90
24250;DHT22;12379;49.820;8.648;2023-07-28T13:50:20;22.20;99.90
24250;DHT22;12379;49.820;8.648;2023-07-28T13:52:45;22.30;99.90
24250;DHT22;12379;49.820;8.648;2023-07-28T13:55:11;22.30;99.90
24250;DHT22;12379;49.820;8.648;2023-07-28T13:57:36;22.30;99.90
24250;DHT22;12379;49.820;8.648;2023-07-28T14:00:03;22.40;99.90
24250;DHT22;12379;49.820;8.648;2023-07-28T14:02:28;22.20;99.90
24250;DHT22;12379;49.820;8.648;2023-07-28T14:04:54;22.10;99.90
24250;DHT22;12379;49.820;8.648;2023-07-28T14:07:19;22.10;99.90
24250;DHT22;12379;49.820;8.648;2023-07-28T14:09:45;22.10;99.90
24250;DHT22;12379;49.820;8.648;2023-07-28T14:12:11;22.10;99.90
24250;DHT22;12379;49.820;8.648;2023-07-28T14:14:36;22.10;99.90
24250;DHT22;12379;49.820;8.648;2023-07-28T14:17:02;22.30;99.90
24250;DHT22;12379;49.820;8.648;2023-07-28T14:19:28;22.30;99.90
24250;DHT22;12379;49.820;8.648;2023-07-28T14:21:53;22.30;99.90
24250;DHT22;12379;49.820;8.648;2023-07-28T14:24:19;22.50;99.90
24250;DHT22;12379;49.820;8.648;2023-07-28T14:26:45;22.50;99.90
24250;DHT22;12379;49.820;8.648;2023-07-28T14:29:10;22.60;99.90
24250;DHT22;12379;49.820;8.648;2023-07-28T14:31:36;22.60;99.90
24250;DHT22;12379;49.820;8.648;2023-07-28T14:34:01;22.60;99.90
24250;DHT22;12379;49.820;8.648;2023-07-28T14:36:27;22.50;99.90
24250;DHT22;12379;49.820;8.648;2023-07-28T14:38:52;22.50;99.90
24250;DHT22;12379;49.820;8.648;2023-07-28T14:41:18;22.30;99.90
24250;DHT22;12379;49.820;8.648;2023-07-28T14:43:43;22.20;99.90
24250;DHT22;12379;49.820;8.648;2023-07-28T14:46:12;22.20;99.90
24250;DHT22;12379;49.820;8.648;2023-07-28T14:48:40;22.10;99.90
24250;DHT22;12379;49.820;8.648;2023-07-28T14:51:07;22.00;99.90
24250;DHT22;12379;49.820;8.648;2023-07-28T14:53:35;21.70;99.90
24250;DHT22;12379;49.820;8.648;2023-07-28T14:56:03;21.80;99.90
24250;DHT22;12379;49.820;8.648;2023-07-28T14:58:29;21.60;99.90
24250;DHT22;12379;49.820;8.648;2023-07-28T15:00:55;21.60;99.90
24250;DHT22;12379;49.820;8.648;2023-07-28T15:03:22;21.60;99.90
24250;DHT22;12379;49.820;8.648;2023-07-28T15:05:48;21.60;99.90
24250;DHT22;12379;49.820;8.648;2023-07-28T15:08:14;21.60;99.90
24250;DHT22;12379;49.820;8.648;2023-07-28T15:10:40;21.70;99.90
24250;DHT22;12379;49.820;8.648;2023-07-28T15:13:06;21.70;99.90
24250;DHT22;12379;49.820;8.648;2023-07-28T15:15:31;21.80;99.90
24250;DHT22;12379;49.820;8.648;2023-07-28T15:17:57;21.80;99.90
24250;DHT22;12379;49.820;8.648;2023-07-28T15:20:22;21.60;99.90
24250;DHT22;12379;49.820;8.648;2023-07-28T15:22:49;21.50;99.90
24250;DHT22;12379;49.820;8.648;2023-07-28T15:25:15;21.40;99.90
24250;DHT22;12379;49.820;8.648;2023-07-28T15:27:41;21.40;99.90
24250;DHT22;12379;49.820;8.648;2023-07-28T15:30:07;21.30;99.90
24250;DHT22;12379;49.820;8.648;2023-07-28T15:32:34;21.40;99.90
24250;DHT22;12379;49.820;8.648;2023-07-28T15:35:00;21.40;99.90